createdAt,value
2022-12-27T00:01:32.663Z,100657.06
2022-12-27T00:06:36.185Z,100655.44
2022-12-27T00:11:40.345Z,100628.25
2022-12-27T00:16:45.021Z,100654.06
2022-12-27T00:21:48.375Z,100648.09
2022-12-27T00:26:51.606Z,100633.66
2022-12-27T00:31:56.534Z,100626.69
2022-12-27T00:36:59.883Z,100624.03
2022-12-27T00:42:03.445Z,100627.56
2022-12-27T00:47:08.165Z,100616.34
2022-12-27T00:52:11.660Z,100595.63
2022-12-27T00:57:14.869Z,100588.78
2022-12-27T01:02:19.521Z,100572.34
2022-12-27T01:07:22.777Z,100564.50
2022-12-27T01:12:26.025Z,100558.34
2022-12-27T01:17:32.131Z,100538.25
2022-12-27T01:22:35.585Z,100529.66
2022-12-27T01:27:39.120Z,100522.53
2022-12-27T01:32:43.946Z,100534.88
2022-12-27T01:37:47.288Z,100527.16
2022-12-27T01:42:53.537Z,100514.22
2022-12-27T01:48:02.280Z,100510.06
2022-12-27T01:53:11.496Z,100498.97
2022-12-27T01:58:19.104Z,100497.25
2022-12-27T02:03:28.023Z,100496.38
2022-12-27T02:08:41.446Z,100479.91
2022-12-27T02:13:47.541Z,100463.25
2022-12-27T02:19:22.860Z,100462.47
2022-12-27T02:24:58.744Z,100467.59
2022-12-27T02:30:06.932Z,100461.41
2022-12-27T02:35:16.102Z,100469.28
2022-12-27T02:40:42.115Z,100465.66
2022-12-27T02:46:17.159Z,100457.88
2022-12-27T02:51:57.187Z,100453.47
2022-12-27T02:57:11.097Z,100448.25
2022-12-27T03:02:41.651Z,100441.31
2022-12-27T03:07:50.437Z,100429.19
2022-12-27T03:13:19.567Z,100388.00
2022-12-27T03:18:33.666Z,100409.25
2022-12-27T03:23:59.319Z,100402.38
2022-12-27T03:29:21.663Z,100393.66
2022-12-27T03:34:35.886Z,100380.63
2022-12-27T03:39:45.560Z,100368.56
2022-12-27T03:44:49.184Z,100369.66
2022-12-27T03:50:00.503Z,100360.91
2022-12-27T03:55:04.326Z,100350.50
2022-12-27T04:00:09.477Z,100354.84
2022-12-27T04:05:14.148Z,100350.63
2022-12-27T04:10:34.807Z,100343.72
2022-12-27T04:15:55.392Z,100330.66
2022-12-27T04:21:17.415Z,100328.06
2022-12-27T04:26:37.885Z,100316.78
2022-12-27T04:31:58.473Z,100302.03
2022-12-27T04:37:03.135Z,100293.34
2022-12-27T04:42:23.902Z,100291.75
2022-12-27T04:47:44.950Z,100288.22
2022-12-27T04:53:07.740Z,100279.63
2022-12-27T04:58:11.045Z,100278.72
2022-12-27T05:03:17.731Z,100260.63
2022-12-27T05:08:40.093Z,100270.22
2022-12-27T05:14:01.321Z,100226.59
2022-12-27T05:19:07.000Z,100253.13
2022-12-27T05:24:29.489Z,100231.50
2022-12-27T05:29:36.099Z,100232.38
2022-12-27T05:34:39.332Z,100232.31
2022-12-27T05:39:44.017Z,100229.56
2022-12-27T05:44:47.519Z,100238.13
2022-12-27T05:49:50.872Z,100219.81
2022-12-27T05:54:55.559Z,100213.78
2022-12-27T05:59:58.907Z,100210.31
2022-12-27T06:05:02.313Z,100199.88
2022-12-27T06:10:09.206Z,100201.69
2022-12-27T06:15:13.093Z,100206.97
2022-12-27T06:20:16.415Z,100208.81
2022-12-27T06:25:21.206Z,100213.22
2022-12-27T06:30:24.396Z,100195.97
2022-12-27T06:35:27.586Z,100189.16
2022-12-27T06:40:32.194Z,100183.16
2022-12-27T06:45:35.436Z,100198.69
2022-12-27T06:50:38.720Z,100196.13
2022-12-27T06:55:43.388Z,100173.75
2022-12-27T07:00:46.688Z,100174.75
2022-12-27T07:05:49.999Z,100151.56
2022-12-27T07:10:54.739Z,100146.63
2022-12-27T07:15:57.997Z,100137.97
2022-12-27T07:21:04.483Z,100101.28
2022-12-27T07:26:11.718Z,100122.06
2022-12-27T07:31:17.564Z,100117.16
2022-12-27T07:36:23.041Z,100105.34
2022-12-27T07:41:27.910Z,100102.81
2022-12-27T07:46:31.264Z,100094.16
2022-12-27T07:51:34.519Z,100079.44
2022-12-27T07:56:39.360Z,100079.38
2022-12-27T08:02:00.502Z,100081.03
2022-12-27T08:07:09.689Z,100081.03
2022-12-27T08:12:14.733Z,100079.28
2022-12-27T08:17:22.168Z,100059.34
2022-12-27T08:22:25.480Z,100056.88
2022-12-27T08:27:30.218Z,100042.19
2022-12-27T08:32:33.588Z,100029.22
2022-12-27T08:37:36.951Z,100014.63
2022-12-27T08:42:41.579Z,100012.28
2022-12-27T08:47:44.945Z,100003.75
2022-12-27T08:52:48.166Z,99986.56
2022-12-27T08:57:57.166Z,100002.38
2022-12-27T09:03:00.871Z,99986.00
2022-12-27T09:08:04.165Z,99975.53
2022-12-27T09:13:09.049Z,99963.38
2022-12-27T09:18:12.334Z,99967.66
2022-12-27T09:23:15.725Z,99959.94
2022-12-27T09:28:20.550Z,99952.28
2022-12-27T09:33:23.841Z,99947.22
2022-12-27T09:38:27.079Z,99940.13
2022-12-27T09:43:40.354Z,99934.84
2022-12-27T09:48:43.538Z,99933.16
2022-12-27T09:53:51.765Z,99910.56
2022-12-27T09:59:00.029Z,99881.16
2022-12-27T10:04:04.943Z,99910.06
2022-12-27T10:09:24.188Z,99916.19
2022-12-27T10:14:44.660Z,99907.50
2022-12-27T10:19:54.944Z,99900.59
2022-12-27T10:25:02.126Z,99894.59
2022-12-27T10:30:16.488Z,99877.31
2022-12-27T10:35:20.002Z,99873.91
2022-12-27T10:40:31.037Z,99859.25
2022-12-27T10:45:42.456Z,99858.50
2022-12-27T10:50:52.797Z,99850.78
2022-12-27T10:56:11.555Z,99837.75
2022-12-27T11:01:23.846Z,99823.00
2022-12-27T11:06:27.497Z,99820.44
2022-12-27T11:11:31.100Z,99819.53
2022-12-27T11:16:37.375Z,99804.72
2022-12-27T11:21:41.430Z,99784.78
2022-12-27T11:26:54.105Z,99773.47
2022-12-27T11:32:06.336Z,99771.81
2022-12-27T11:37:14.647Z,99751.75
2022-12-27T11:42:27.257Z,99764.00
2022-12-27T11:47:38.823Z,99757.97
2022-12-27T11:52:55.494Z,99746.69
2022-12-27T11:58:22.528Z,99747.53
2022-12-27T12:04:07.229Z,99735.41
2022-12-27T12:09:25.986Z,99732.81
2022-12-27T12:15:13.374Z,99728.53
2022-12-27T12:20:44.425Z,99723.31
2022-12-27T12:26:12.921Z,99719.00
2022-12-27T12:31:29.245Z,99726.88
2022-12-27T12:36:57.275Z,99716.50
2022-12-27T12:42:19.263Z,99703.53
2022-12-27T12:47:47.036Z,99694.88
2022-12-27T12:53:12.652Z,99684.47
2022-12-27T12:58:33.287Z,99674.94
2022-12-27T13:04:02.862Z,99673.25
2022-12-27T13:09:21.732Z,99668.06
2022-12-27T13:14:40.230Z,99663.78
2022-12-27T13:19:55.191Z,99655.13
2022-12-27T13:25:11.526Z,99651.66
2022-12-27T13:30:21.416Z,99643.00
2022-12-27T13:35:36.959Z,99639.53
2022-12-27T13:40:58.351Z,99641.34
2022-12-27T13:46:26.972Z,99620.53
2022-12-27T13:51:48.898Z,99613.66
2022-12-27T13:57:01.651Z,99606.72
2022-12-27T14:02:30.146Z,99616.28
2022-12-27T14:07:44.819Z,99614.63
2022-12-27T14:12:57.164Z,99606.81
2022-12-27T14:18:26.920Z,99605.13
2022-12-27T14:23:49.295Z,99599.06
2022-12-27T14:29:25.972Z,99595.63
2022-12-27T14:35:07.189Z,99580.00
2022-12-27T14:40:34.891Z,99584.34
2022-12-27T14:46:22.766Z,99572.22
2022-12-27T14:52:12.900Z,99577.50
2022-12-27T14:57:33.545Z,99574.06
2022-12-27T15:02:55.740Z,99567.09
2022-12-27T15:08:21.677Z,99533.16
2022-12-27T15:13:40.699Z,99555.00
2022-12-27T15:19:11.618Z,99546.31
2022-12-27T15:24:27.235Z,99534.16
2022-12-27T15:29:43.474Z,99541.13
2022-12-27T15:35:04.533Z,99540.28
2022-12-27T15:40:25.351Z,99526.38
2022-12-27T15:45:39.609Z,99523.78
2022-12-27T15:51:01.253Z,99516.84
2022-12-27T15:56:22.883Z,99515.09
2022-12-27T16:01:31.934Z,99508.16
2022-12-27T16:06:52.360Z,99500.34
2022-12-27T16:12:03.432Z,99487.31
2022-12-27T16:17:26.083Z,99475.13
2022-12-27T16:22:39.940Z,99474.28
2022-12-27T16:27:44.975Z,99480.38
2022-12-27T16:32:51.266Z,99468.19
2022-12-27T16:37:57.248Z,99465.59
2022-12-27T16:43:47.008Z,99449.94
2022-12-27T16:49:28.605Z,99452.56
2022-12-27T16:54:47.304Z,99443.88
2022-12-27T16:59:57.419Z,99436.94
2022-12-27T17:05:01.818Z,99424.72
2022-12-27T17:10:34.980Z,99416.03
2022-12-27T17:15:49.412Z,99419.53
2022-12-27T17:21:01.583Z,99416.03
2022-12-27T17:26:30.021Z,99407.34
2022-12-27T17:31:43.303Z,99410.81
2022-12-27T17:42:44.397Z,99395.16
2022-12-27T17:48:00.485Z,99396.88
2022-12-27T17:53:32.250Z,99369.06
2022-12-27T17:58:37.048Z,99372.53
2022-12-27T18:03:44.434Z,99351.66
2022-12-27T18:08:49.954Z,99358.56
2022-12-27T18:13:59.245Z,99352.50
2022-12-27T18:19:03.299Z,99355.97
2022-12-27T18:24:25.312Z,99343.78
2022-12-27T18:29:30.498Z,99348.13
2022-12-27T18:34:39.851Z,99338.56
2022-12-27T18:39:50.264Z,99331.59
2022-12-27T18:44:59.390Z,99311.56
2022-12-27T18:50:05.924Z,99312.44
2022-12-27T18:55:17.822Z,99317.66
2022-12-27T19:00:26.721Z,99302.00
2022-12-27T19:05:31.260Z,99309.78
2022-12-27T19:10:34.601Z,99301.09
2022-12-27T19:15:43.649Z,99301.06
2022-12-27T19:20:53.635Z,99303.66
2022-12-27T19:26:02.167Z,99290.59
2022-12-27T19:31:17.713Z,99269.72
2022-12-27T19:36:26.652Z,99279.28
2022-12-27T19:41:31.941Z,99282.72
2022-12-27T19:46:36.703Z,99278.34
2022-12-27T19:51:42.092Z,99278.34
2022-12-27T19:56:46.058Z,99267.03
2022-12-27T20:01:51.180Z,99266.13
2022-12-27T20:06:55.593Z,99262.66
2022-12-27T20:11:58.889Z,99266.97
2022-12-27T20:17:03.705Z,99257.38
2022-12-27T20:22:07.274Z,99251.28
2022-12-27T20:27:10.577Z,99245.16
2022-12-27T20:32:15.337Z,99239.94
2022-12-27T20:37:24.105Z,99227.72
2022-12-27T20:42:27.895Z,99223.34
2022-12-27T20:47:32.507Z,99225.94
2022-12-27T20:52:38.576Z,99218.97
2022-12-27T20:57:42.596Z,99220.69
2022-12-27T21:02:47.877Z,99208.47
2022-12-27T21:07:52.607Z,99207.59
2022-12-27T21:12:55.908Z,99209.28
2022-12-27T21:18:00.677Z,99198.84
2022-12-27T21:23:04.165Z,99185.75
2022-12-27T21:28:07.470Z,99182.28
2022-12-27T21:33:12.272Z,99187.47
2022-12-27T21:38:15.442Z,99178.78
2022-12-27T21:43:18.702Z,99175.28
2022-12-27T21:48:23.792Z,99186.56
2022-12-27T21:53:27.091Z,99169.16
2022-12-27T21:58:32.002Z,99164.81
2022-12-27T22:03:38.117Z,99151.72
2022-12-27T22:08:42.221Z,99151.69
2022-12-27T22:13:45.913Z,99149.97
2022-12-27T22:18:52.075Z,99116.09
2022-12-27T22:23:57.491Z,99123.91
2022-12-27T22:29:02.137Z,99132.50
2022-12-27T22:34:07.481Z,99135.97
2022-12-27T22:39:10.941Z,99130.78
2022-12-27T22:44:15.682Z,99122.94
2022-12-27T22:49:20.271Z,99131.63
2022-12-27T22:55:03.962Z,99130.75
2022-12-27T22:59:46.745Z,99119.44
2022-12-27T23:04:51.537Z,99110.72
2022-12-27T23:09:54.804Z,99110.75
2022-12-27T23:14:58.153Z,99110.75
2022-12-27T23:20:02.918Z,99108.97
2022-12-27T23:25:07.235Z,99102.00
2022-12-27T23:30:11.986Z,99098.53
2022-12-27T23:35:16.746Z,99104.69
2022-12-27T23:40:20.073Z,99104.66
2022-12-27T23:45:23.440Z,99096.84
2022-12-27T23:50:28.031Z,99102.91
2022-12-27T23:55:31.238Z,99084.66
